Latest Weather Observations for Edithburgh

IDS60801

Issued at 3:01 pm CST Sunday 20 August 2017 (issued every 30 minutes, with the page automatically refreshed every 10 minutes)

About weather observations | Map of weather stations | Latest weather observations for SA | Other Formats
Station Details ID: 022046 Name: EDITHBURGH Lat: -35.11 Lon: 137.74 Height: 6.0 m
Data from the previous 72 hours. | See also: Recent months at Edithburgh
Date/Time
CST
Temp
°C
App
Temp
°C
Dew
Point
°C
Rel
Hum
%
Delta-T
°C
Wind Press
QNH
hPa
Press
MSL
hPa
Rain since
9am
mm
Dir  Spd
km/h
Gust
km/h
Spd
kts
Gust
kts
20/03:00pm 12.5 7.7 5.6 63 3.2 NNE 20 30 11 16 1014.8 1014.8 0.0
20/02:30pm 12.2 6.7 5.8 65 3.0 NNE 24 43 13 23 1014.4 1014.4 0.0
20/02:00pm 12.4 6.8 5.3 62 3.3 NNE 24 41 13 22 1014.9 1014.9 0.0
20/01:30pm 12.9 8.1 5.4 60 3.5 NNE 20 37 11 20 1016.5 1016.5 0.0
20/01:00pm 12.7 7.5 5.4 61 3.4 NNE 22 37 12 20 1017.2 1017.2 0.0
20/12:30pm 12.7 7.3 6.4 65 3.0 NNE 24 37 13 20 1017.0 1017.0 0.0
20/12:00pm 13.8 7.9 5.7 58 3.8 NNE 26 43 14 23 1017.9 1018.0 0.0
20/11:30am 12.3 6.6 5.1 61 3.3 NNE 24 35 13 19 1019.4 1019.5 0.0
20/11:00am 12.5 7.6 5.1 60 3.4 NNE 20 35 11 19 1020.5 1020.5 0.0
20/10:30am 11.7 5.8 4.1 59 3.4 NNE 24 43 13 23 1020.8 1020.8 0.0
20/10:00am 11.2 5.4 4.3 62 3.1 NNE 24 37 13 20 1021.2 1021.2 0.0
20/09:30am 11.3 5.5 4.4 62 3.1 NNE 24 37 13 20 1021.8 1021.8 0.0
20/09:00am 11.6 6.3 4.8 63 3.1 NE 22 35 12 19 1022.4 1022.4 0.0
20/08:30am 11.1 5.2 4.1 62 3.1 NE 24 35 13 19 1022.8 1022.8 0.0
20/08:00am 10.5 4.6 3.9 63 2.9 NE 24 33 13 18 1022.6 1022.6 0.0
20/07:30am 10.3 3.8 4.5 67 2.6 NE 28 37 15 20 1022.7 1022.7 0.0
20/07:00am 10.6 4.8 4.6 66 2.7 NE 24 35 13 19 1022.8 1022.8 0.0
20/06:30am 10.7 5.3 4.7 66 2.7 NNE 22 33 12 18 1023.1 1023.1 0.0
20/06:00am 11.0 5.2 4.5 64 2.9 NNE 24 37 13 20 1022.9 1022.9 0.0
20/05:30am 11.1 5.3 4.6 64 2.9 NE 24 35 13 19 1022.9 1022.9 0.0
20/05:00am 10.9 4.7 4.4 64 2.9 NE 26 35 14 19 1023.3 1023.3 0.0
20/04:30am 11.1 4.5 4.1 62 3.1 NE 28 37 15 20 1023.3 1023.3 0.0
20/04:00am 10.9 6.0 4.9 66 2.7 NE 20 32 11 17 1023.8 1023.8 0.0
20/03:30am 10.9 5.9 4.7 65 2.8 NE 20 30 11 16 1024.2 1024.2 0.0
20/03:00am 10.8 6.0 4.8 66 2.7 NE 19 26 10 14 1024.3 1024.3 0.0
20/02:30am 10.7 6.0 5.2 69 2.5 NE 19 24 10 13 1024.7 1024.7 0.0
20/02:00am 10.7 6.5 5.7 71 2.3 NE 17 26 9 14 1025.1 1025.1 0.0
20/01:30am 10.7 6.0 6.2 74 2.1 NE 20 28 11 15 1025.0 1025.0 0.0
20/01:00am 10.7 6.2 6.2 74 2.1 ENE 19 24 10 13 1025.4 1025.4 0.0
20/12:30am 10.5 6.0 6.2 75 2.0 ENE 19 22 10 12 1025.7 1025.7 0.0
20/12:00am 10.2 6.4 5.8 74 2.0 ENE 15 20 8 11 1026.2 1026.2 0.0
 
Date/Time
CST
Temp
°C
App
Temp
°C
Dew
Point
°C
Rel
Hum
%
Delta-T
°C
Wind Press
QNH
hPa
Press
MSL
hPa
Rain since
9am
mm
Dir  Spd
km/h
Gust
km/h
Spd
kts
Gust
kts
19/11:30pm 9.9 6.9 6.2 78 1.7 ENE 11 15 6 8 1026.6 1026.6 0.0
19/11:00pm 10.0 6.2 5.6 74 2.0 E 15 19 8 10 1026.7 1026.7 0.0
19/10:30pm 9.9 6.1 5.7 75 1.9 E 15 19 8 10 1026.9 1026.9 0.0
19/10:00pm 8.8 5.7 5.7 81 1.4 E 11 13 6 7 1027.2 1027.2 0.0
19/09:30pm 8.4 5.2 5.0 79 1.5 E 11 13 6 7 1027.2 1027.2 0.0
19/09:00pm 8.0 5.1 4.6 79 1.5 ESE 9 9 5 5 1027.2 1027.2 0.0
19/08:30pm 7.5 5.1 4.5 81 1.3 ESE 6 7 3 4 1027.5 1027.5 0.0
19/08:00pm 7.6 5.6 4.6 81 1.3 SE 4 6 2 3 1027.7 1027.7 0.0
19/07:30pm 8.2 6.6 4.5 77 1.6 SE 2 2 1 1 1027.9 1027.9 0.0
19/07:00pm 7.9 5.6 4.7 80 1.4 SE 6 6 3 3 1027.7 1027.7 0.0
19/06:30pm 9.0 6.7 4.7 74 1.9 SE 6 6 3 3 1027.6 1027.6 0.0
19/06:00pm 9.6 7.9 6.1 79 1.6 NE 4 4 2 2 1027.9 1027.9 0.0
19/05:30pm 11.2 10.4 6.5 73 2.2 CALM 0 0 0 0 1028.0 1028.0 0.0
19/05:00pm 11.8 9.9 4.7 62 3.2 E 4 6 2 3 1027.9 1027.9 0.0
19/04:30pm 12.2 9.6 3.3 54 3.9 SE 6 7 3 4 1027.8 1027.8 0.0
19/04:00pm 12.6 10.3 4.9 59 3.5 ENE 6 7 3 4 1027.7 1027.7 0.0
19/03:30pm 12.7 10.1 4.3 56 3.8 NE 7 11 4 6 1027.7 1027.7 0.0
19/03:00pm 13.0 10.3 3.6 53 4.2 E 7 9 4 5 1027.7 1027.7 0.0
19/02:30pm 12.8 10.2 4.1 55 3.9 SSE 7 9 4 5 1028.0 1028.0 0.0
19/02:00pm 12.5 9.9 4.3 57 3.7 SE 7 13 4 7 1028.3 1028.3 0.0
19/01:30pm 12.9 10.1 5.1 59 3.6 SE 9 13 5 7 1028.6 1028.6 0.0
19/01:00pm 12.9 10.5 5.1 59 3.6 SE 7 11 4 6 1029.0 1029.0 0.0
19/12:30pm 13.2 10.9 5.7 60 3.5 ESE 7 11 4 6 1029.5 1029.5 0.0
19/12:00pm 12.7 10.0 5.6 62 3.3 SE 9 13 5 7 1029.7 1029.7 0.0
19/11:30am 12.6 9.3 6.5 66 2.9 SE 13 17 7 9 1030.0 1030.0 0.0
19/11:00am 12.7 9.6 7.1 69 2.7 SSE 13 17 7 9 1030.3 1030.3 0.0
19/10:30am 13.1 10.0 7.1 67 2.9 SSE 13 19 7 10 1030.4 1030.4 0.0
19/10:00am 12.9 9.7 5.3 60 3.5 SSE 11 15 6 8 1030.4 1030.4 0.0
19/09:30am 12.7 9.9 5.1 60 3.5 S 9 13 5 7 1030.5 1030.5 0.0
19/09:00am 12.7 9.5 5.3 60 3.4 S 11 15 6 8 1030.4 1030.4 0.6
19/08:30am 12.3 8.9 4.0 57 3.7 S 11 13 6 7 1030.0 1030.0 0.6
19/08:00am 11.4 8.4 3.9 60 3.3 S 9 13 5 7 1029.7 1029.7 0.6
19/07:30am 8.8 5.8 4.2 73 2.0 SSW 9 9 5 5 1029.3 1029.3 0.6
19/07:00am 8.2 4.8 4.0 75 1.8 SW 11 13 6 7 1028.9 1028.9 0.6
19/06:30am 9.3 5.6 4.3 71 2.2 SSW 13 17 7 9 1028.6 1028.6 0.6
19/06:00am 8.3 5.8 4.9 79 1.5 SW 7 13 4 7 1028.3 1028.3 0.6
19/05:30am 9.2 5.8 4.2 71 2.2 SSW 11 19 6 10 1028.0 1028.0 0.6
19/05:00am 9.1 5.8 4.3 72 2.1 SSW 11 17 6 9 1027.9 1027.9 0.6
19/04:30am 8.9 5.6 4.8 75 1.8 SSW 11 13 6 7 1027.6 1027.6 0.6
19/04:00am 9.1 5.4 4.6 73 2.0 SSW 13 15 7 8 1027.3 1027.3 0.6
19/03:30am 9.3 5.6 4.5 72 2.1 SSW 13 15 7 8 1027.3 1027.3 0.6
19/03:00am 9.8 5.7 4.6 70 2.3 SSW 15 19 8 10 1027.2 1027.2 0.6
19/02:30am 10.1 6.0 4.5 68 2.5 SSW 15 20 8 11 1027.3 1027.3 0.6
19/02:00am 10.2 5.9 3.0 61 3.1 SW 15 22 8 12 1027.3 1027.3 0.6
19/01:30am 10.5 5.9 3.6 62 3.0 SSW 17 22 9 12 1027.2 1027.2 0.6
19/01:00am 10.5 5.9 3.9 63 2.9 SSW 17 22 9 12 1027.2 1027.2 0.6
19/12:30am 10.5 5.6 3.9 63 2.9 SSW 19 24 10 13 1027.2 1027.2 0.6
19/12:00am 10.6 5.8 4.5 66 2.7 SW 19 26 10 14 1027.2 1027.2 0.6
 
Date/Time
CST
Temp
°C
App
Temp
°C
Dew
Point
°C
Rel
Hum
%
Delta-T
°C
Wind Press
QNH
hPa
Press
MSL
hPa
Rain since
9am
mm
Dir  Spd
km/h
Gust
km/h
Spd
kts
Gust
kts
18/11:30pm 10.5 6.0 4.4 66 2.7 SW 17 22 9 12 1027.3 1027.3 0.6
18/11:00pm 10.7 6.3 4.7 66 2.7 SW 17 24 9 13 1027.3 1027.3 0.6
18/10:30pm 10.5 6.0 4.2 65 2.8 SW 17 24 9 13 1027.1 1027.1 0.6
18/10:00pm 10.3 6.3 4.7 68 2.5 SW 15 20 8 11 1027.1 1027.1 0.6
18/09:30pm 10.5 6.6 5.4 70 2.3 SW 15 22 8 12 1027.1 1027.1 0.6
18/09:00pm 10.8 6.2 6.3 74 2.1 SSW 20 28 11 15 1027.0 1027.0 0.6
18/08:30pm 10.6 6.7 5.3 70 2.4 SW 15 20 8 11 1026.8 1026.8 0.6
18/08:00pm 10.8 6.4 5.0 67 2.6 SW 17 24 9 13 1026.4 1026.4 0.6
18/07:30pm 11.4 6.4 4.7 63 3.0 SW 20 30 11 16 1026.3 1026.3 0.6
18/07:00pm 11.2 6.9 3.4 58 3.4 WSW 15 24 8 13 1026.0 1026.0 0.6
18/06:30pm 10.4 6.9 3.5 62 3.0 WSW 11 15 6 8 1025.7 1025.7 0.6
18/06:00pm 11.3 6.8 4.4 62 3.1 WSW 17 24 9 13 1025.3 1025.3 0.6
18/05:30pm 11.4 6.6 4.5 62 3.1 WSW 19 28 10 15 1025.0 1025.0 0.6
18/05:00pm 12.4 6.9 3.9 56 3.8 WSW 22 33 12 18 1024.5 1024.5 0.6
18/04:30pm 13.1 8.4 5.9 61 3.4 WSW 20 28 11 15 1024.2 1024.2 0.6
18/04:00pm 13.5 7.7 4.5 54 4.1 WSW 24 37 13 20 1024.0 1024.0 0.6
18/03:30pm 13.4 7.2 6.0 61 3.5 WSW 28 35 15 19 1024.0 1024.0 0.6
18/03:00pm 13.6 8.5 6.0 60 3.6 WSW 22 33 12 18 1023.9 1023.9 0.6
18/02:30pm 13.3 6.7 5.9 61 3.5 WSW 30 44 16 24 1023.6 1023.6 0.6
18/02:00pm 12.1 5.8 5.9 66 2.9 WSW 28 39 15 21 1023.6 1023.6 0.6
18/01:30pm 13.7 8.7 6.4 61 3.5 WSW 22 35 12 19 1023.4 1023.4 0.6
18/01:00pm 12.9 8.3 8.2 73 2.3 SW 22 35 12 19 1023.6 1023.6 0.6
18/12:33pm 12.6 6.5 6.7 67 2.8 WSW 28 46 15 25 1023.6 1023.6 0.2
18/12:30pm 13.5 7.6 5.6 59 3.7 WSW 26 37 14 20 1023.6 1023.6 0.2
18/12:00pm 12.7 6.3 5.1 60 3.5 WSW 28 43 15 23 1023.7 1023.7 0.2
18/11:33am 13.4 6.6 4.9 56 3.9 WSW 30 50 16 27 1023.5 1023.5 0.2
18/11:30am 13.3 6.5 5.1 57 3.8 WSW 30 39 16 21 1023.5 1023.5 0.2
18/11:06am 11.2 4.2 6.0 70 2.4 W 32 52 17 28 1023.5 1023.5 0.2
18/11:00am 11.5 4.5 6.9 73 2.2 WSW 33 52 18 28 1023.5 1023.5 0.2
18/10:56am 13.3 7.0 5.6 59 3.6 WSW 28 48 15 26 1023.3 1023.3 0.2
18/10:30am 12.2 7.5 6.2 67 2.8 WSW 20 37 11 20 1023.2 1023.2 0.2
18/10:18am 10.9 4.4 6.4 74 2.1 SW 30 48 16 26 1023.2 1023.2 0.2
18/10:09am 10.5 4.1 5.4 70 2.3 WSW 28 50 15 27 1023.1 1023.1 0.2
18/10:00am 12.1 7.8 7.1 71 2.4 WSW 19 30 10 16 1022.9 1022.9 0.2
18/09:30am 11.8 5.3 4.5 61 3.3 SW 28 39 15 21 1022.4 1022.4 0.0
18/09:15am 12.1 5.5 4.3 59 3.5 SW 28 46 15 25 1022.2 1022.2 0.0
18/09:00am 11.0 5.5 6.0 71 2.3 SW 24 41 13 22 1022.0 1022.0 6.0
18/08:30am 11.4 6.2 5.3 66 2.8 WSW 22 37 12 20 1021.6 1021.6 6.0
18/08:00am 10.4 4.5 5.6 72 2.2 SW 26 37 14 20 1020.9 1020.9 6.0
18/07:33am 9.6 3.1 4.9 72 2.1 SW 28 46 15 25 1020.4 1020.4 6.0
18/07:30am 9.5 2.8 5.8 78 1.7 SW 30 46 16 25 1020.4 1020.4 6.0
18/07:15am 10.6 4.2 5.3 70 2.4 SW 28 50 15 27 1020.0 1020.0 5.8
18/07:00am 10.0 5.0 4.6 69 2.4 WSW 20 30 11 16 1019.6 1019.7 5.8
18/06:30am 10.0 4.5 5.9 75 1.9 WSW 24 52 13 28 1019.0 1019.1 5.8
18/06:26am 9.5 5.0 6.2 80 1.5 W 19 52 10 28 1019.0 1019.1 5.8
18/06:00am 9.9 5.7 5.5 74 2.0 WSW 17 33 9 18 1018.6 1018.7 5.8
18/05:30am 9.2 3.8 4.7 73 2.0 W 22 35 12 19 1018.1 1018.2 5.8
18/05:00am 9.1 2.3 7.0 87 1.0 WSW 32 41 17 22 1018.0 1018.1 5.8
18/04:30am 9.2 5.0 5.9 80 1.5 WSW 17 28 9 15 1017.2 1017.2 5.0
18/04:06am 9.8 4.5 6.8 81 1.4 WSW 24 43 13 23 1017.0 1017.0 4.8
18/04:00am 9.5 5.8 6.2 80 1.5 WSW 15 24 8 13 1016.8 1016.8 4.6
18/03:30am 9.3 5.7 6.7 84 1.2 W 15 22 8 12 1016.5 1016.5 4.6
18/03:00am 8.7 3.6 6.1 84 1.2 WSW 22 33 12 18 1016.4 1016.4 4.4
18/02:30am 8.8 4.3 5.9 82 1.3 W 19 30 10 16 1016.2 1016.2 4.2
18/02:00am 9.6 3.6 5.4 75 1.9 WSW 26 39 14 21 1016.1 1016.1 4.0
18/01:30am 9.6 2.5 5.6 76 1.8 WSW 32 44 17 24 1015.9 1015.9 4.0
18/01:00am 8.3 2.7 5.4 82 1.3 W 24 37 13 20 1015.4 1015.4 3.8
18/12:43am 8.8 2.5 5.9 82 1.3 W 28 56 15 30 1015.8 1015.8 3.6
18/12:30am 9.1 2.5 6.0 81 1.4 W 30 44 16 24 1015.3 1015.3 3.4
18/12:09am 9.4 2.7 5.7 78 1.7 W 30 52 16 28 1015.4 1015.4 3.4
18/12:00am 9.8 3.3 4.9 71 2.2 W 28 41 15 22 1014.7 1014.7 3.2
 
Date/Time
CST
Temp
°C
App
Temp
°C
Dew
Point
°C
Rel
Hum
%
Delta-T
°C
Wind Press
QNH
hPa
Press
MSL
hPa
Rain since
9am
mm
Dir  Spd
km/h
Gust
km/h
Spd
kts
Gust
kts
17/11:30pm 9.7 2.9 5.3 74 2.0 W 30 43 16 23 1014.4 1014.4 3.2
17/11:16pm 9.5 3.0 4.5 71 2.2 WNW 28 48 15 26 1014.2 1014.2 3.2
17/11:00pm 8.5 3.7 5.6 82 1.3 WNW 20 28 11 15 1014.1 1014.1 3.2
17/10:30pm 8.0 3.4 5.8 86 1.0 WNW 19 24 10 13 1013.8 1013.8 3.2
17/10:17pm 8.6 3.2 6.2 85 1.1 W 24 30 13 16 1013.7 1013.7 3.2
17/10:00pm 8.1 0.4 5.2 82 1.3 WSW 35 59 19 32 1013.6 1013.6 3.2
17/09:57pm 9.6 2.4 5.2 74 2.0 W 32 59 17 32 1013.9 1013.9 3.0
17/09:36pm 9.9 2.6 5.3 73 2.1 WNW 33 54 18 29 1013.1 1013.1 2.4
17/09:30pm 10.0 3.2 5.1 71 2.2 WNW 30 46 16 25 1013.2 1013.2 2.4
17/09:26pm 10.0 3.5 4.9 70 2.3 WNW 28 46 15 25 1013.0 1013.0 2.4
17/09:00pm 9.8 3.7 4.7 70 2.3 W 26 44 14 24 1013.0 1013.0 2.4
17/08:30pm 8.7 4.2 6.1 84 1.2 WNW 19 30 10 16 1012.7 1012.7 2.4
17/08:00pm 8.8 2.7 5.0 77 1.7 WNW 26 37 14 20 1012.4 1012.4 2.4
17/07:37pm 9.7 1.4 4.0 67 2.5 WNW 37 57 20 31 1011.4 1011.4 2.4
17/07:30pm 9.8 1.9 4.4 69 2.4 WNW 35 48 19 26 1011.9 1011.9 2.4
17/07:00pm 11.0 2.3 4.0 62 3.1 W 39 54 21 29 1011.2 1011.2 2.4
17/06:48pm 11.1 2.7 3.9 61 3.2 W 37 57 20 31 1010.9 1010.9 2.4
17/06:30pm 10.7 3.3 3.9 63 3.0 W 32 41 17 22 1010.7 1010.7 2.4
17/06:05pm 11.4 3.1 4.0 60 3.3 WNW 37 63 20 34 1010.2 1010.2 2.4
17/06:00pm 11.5 3.6 4.4 61 3.2 WNW 35 50 19 27 1010.3 1010.3 2.4
17/05:47pm 11.3 4.1 4.9 65 2.9 WNW 32 52 17 28 1010.0 1010.0 2.4
17/05:30pm 11.4 2.9 5.1 65 2.9 WNW 39 52 21 28 1009.7 1009.7 2.4
17/05:00pm 12.2 4.5 5.3 62 3.2 WNW 35 54 19 29 1009.1 1009.1 2.4
17/04:30pm 12.8 4.1 4.0 55 4.0 WNW 39 59 21 32 1008.8 1008.8 2.4
17/04:04pm 12.4 4.8 5.8 64 3.1 WNW 35 54 19 29 1008.7 1008.7 2.4
17/04:00pm 12.4 4.3 5.3 62 3.3 WNW 37 54 20 29 1008.5 1008.5 2.4
17/03:39pm 12.5 5.7 7.6 72 2.4 WNW 33 52 18 28 1008.5 1008.5 2.4
17/03:30pm 12.5 4.9 7.4 71 2.5 WNW 37 52 20 28 1008.2 1008.2 2.4

Other Formats:

Comma delimited format used in spreadsheet applications
http://www.bom.gov.au/fwo/IDS60801/IDS60801.94809.axf

JavaScript Object Notation format (JSON) in row-major order
http://www.bom.gov.au/fwo/IDS60801/IDS60801.94809.json